createdAt,value
2017-08-07T00:00:23.942Z,17.09
2017-08-07T00:01:23.956Z,17.16
2017-08-07T00:02:23.949Z,17.11
2017-08-07T00:03:23.954Z,17.05
2017-08-07T00:04:23.953Z,17.08
2017-08-07T00:05:23.954Z,17.06
2017-08-07T00:06:23.956Z,17.04
2017-08-07T00:07:23.961Z,17.05
2017-08-07T00:08:23.656Z,16.99
2017-08-07T00:09:23.957Z,17.01
2017-08-07T00:10:23.978Z,17.01
2017-08-07T00:11:23.961Z,17.01
2017-08-07T00:12:23.658Z,17.01
2017-08-07T00:13:23.961Z,16.91
2017-08-07T00:14:25.119Z,16.96
2017-08-07T00:15:23.964Z,16.99
2017-08-07T00:16:23.961Z,16.93
2017-08-07T00:17:23.662Z,16.94
2017-08-07T00:18:23.970Z,16.93
2017-08-07T00:19:23.964Z,17.04
2017-08-07T00:20:23.965Z,16.97
2017-08-07T00:21:23.981Z,17.06
2017-08-07T00:22:23.973Z,17.06
2017-08-07T00:23:23.966Z,17.06
2017-08-07T00:24:23.967Z,17.06
2017-08-07T00:25:23.967Z,17.15
2017-08-07T00:26:23.670Z,17.15
2017-08-07T00:27:23.969Z,17.08
2017-08-07T00:28:23.975Z,17.12
2017-08-07T00:29:23.678Z,17.02
2017-08-07T00:30:23.974Z,17.05
2017-08-07T00:31:23.975Z,17.04
2017-08-07T00:32:23.974Z,16.97
2017-08-07T00:33:23.980Z,17.02
2017-08-07T00:34:23.692Z,16.89
2017-08-07T00:35:23.984Z,16.89
2017-08-07T00:36:23.679Z,16.86
2017-08-07T00:37:23.977Z,16.71
2017-08-07T00:38:23.981Z,16.71
2017-08-07T00:39:23.985Z,16.69
2017-08-07T00:40:23.988Z,16.66
2017-08-07T00:41:23.985Z,16.68
2017-08-07T00:42:23.990Z,16.64
2017-08-07T00:43:23.989Z,16.51
2017-08-07T00:44:23.994Z,16.5
2017-08-07T00:45:24.004Z,16.39
2017-08-07T00:46:23.995Z,16.38
2017-08-07T00:47:23.690Z,16.43
2017-08-07T00:48:23.989Z,16.47
2017-08-07T00:49:23.993Z,16.58
2017-08-07T00:50:24.000Z,16.61
2017-08-07T00:51:23.997Z,16.53
2017-08-07T00:52:23.996Z,16.65
2017-08-07T00:53:23.698Z,16.54
2017-08-07T00:54:23.999Z,16.58
2017-08-07T00:55:24.007Z,16.57
2017-08-07T00:56:23.995Z,16.54
2017-08-07T00:57:23.996Z,16.5
2017-08-07T00:58:24.006Z,16.61
2017-08-07T00:59:24.010Z,16.58
2017-08-07T01:00:24.064Z,16.66
2017-08-07T01:01:24.012Z,16.65
2017-08-07T01:02:24.011Z,16.57
2017-08-07T01:03:24.013Z,16.57
2017-08-07T01:04:24.013Z,16.53
2017-08-07T01:05:24.014Z,16.53
2017-08-07T01:06:24.011Z,16.43
2017-08-07T01:07:23.706Z,16.39
2017-08-07T01:08:24.013Z,16.41
2017-08-07T01:09:23.709Z,16.42
2017-08-07T01:10:24.017Z,16.33
2017-08-07T01:11:24.013Z,16.36
2017-08-07T01:12:24.015Z,16.29
2017-08-07T01:13:24.015Z,16.26
2017-08-07T01:14:24.014Z,16.23
2017-08-07T01:15:25.534Z,16.28
2017-08-07T01:16:24.019Z,16.31
2017-08-07T01:17:24.018Z,16.15
2017-08-07T01:18:24.027Z,16.21
2017-08-07T01:19:24.017Z,16.15
2017-08-07T01:20:24.026Z,16.15
2017-08-07T01:21:24.022Z,16.15
2017-08-07T01:22:24.019Z,16.1
2017-08-07T01:23:24.022Z,16.04
2017-08-07T01:24:24.029Z,16.01
2017-08-07T01:25:23.720Z,16.05
2017-08-07T01:26:24.023Z,16
2017-08-07T01:27:24.027Z,16.02
2017-08-07T01:28:24.026Z,16.15
2017-08-07T01:29:23.719Z,16.09
2017-08-07T01:30:24.092Z,16.12
2017-08-07T01:31:23.725Z,16.17
2017-08-07T01:32:24.025Z,16.15
2017-08-07T01:33:24.028Z,16.2
2017-08-07T01:34:24.031Z,16.13
2017-08-07T01:35:24.031Z,16.17
2017-08-07T01:36:24.058Z,16.15
2017-08-07T01:37:24.032Z,16.16
2017-08-07T01:38:24.030Z,16.13
2017-08-07T01:39:24.038Z,16.05
2017-08-07T01:40:24.030Z,16.13
2017-08-07T01:41:24.032Z,16.12
2017-08-07T01:42:24.035Z,16.09
2017-08-07T01:43:24.034Z,16.09
2017-08-07T01:44:24.035Z,16.05
2017-08-07T01:45:26.039Z,16.02
2017-08-07T01:46:24.038Z,16.05
2017-08-07T01:47:24.038Z,16.02
2017-08-07T01:48:24.035Z,15.98
2017-08-07T01:49:24.037Z,15.95
2017-08-07T01:50:24.842Z,16.05
2017-08-07T01:51:24.041Z,16.08
2017-08-07T01:52:24.038Z,16.08
2017-08-07T01:53:24.040Z,16.09
2017-08-07T01:54:24.039Z,16.09
2017-08-07T01:55:24.047Z,16.04
2017-08-07T01:56:23.741Z,16.1
2017-08-07T01:57:24.046Z,16.04
2017-08-07T01:58:24.046Z,16.05
2017-08-07T01:59:24.044Z,16.09
2017-08-07T02:00:24.048Z,16.05
2017-08-07T02:01:24.050Z,16.02
2017-08-07T02:02:24.047Z,15.94
2017-08-07T02:03:24.058Z,15.83
2017-08-07T02:04:24.052Z,15.82
2017-08-07T02:05:24.051Z,15.83
2017-08-07T02:06:24.049Z,15.72
2017-08-07T02:07:24.047Z,15.8
2017-08-07T02:08:23.748Z,15.7
2017-08-07T02:09:24.055Z,15.79
2017-08-07T02:10:24.019Z,15.76
2017-08-07T02:11:24.057Z,15.75
2017-08-07T02:12:23.756Z,15.75
2017-08-07T02:13:23.759Z,15.77
2017-08-07T02:14:24.063Z,15.73
2017-08-07T02:15:24.050Z,15.73
2017-08-07T02:16:24.060Z,15.73
2017-08-07T02:17:24.057Z,15.65
2017-08-07T02:18:24.057Z,15.67
2017-08-07T02:19:24.066Z,15.73
2017-08-07T02:20:24.055Z,15.75
2017-08-07T02:21:24.060Z,15.62
2017-08-07T02:22:24.062Z,15.8
2017-08-07T02:23:24.062Z,15.8
2017-08-07T02:24:24.060Z,15.83
2017-08-07T02:25:24.062Z,15.75
2017-08-07T02:26:24.065Z,15.82
2017-08-07T02:27:24.058Z,15.84
2017-08-07T02:28:24.057Z,15.88
2017-08-07T02:29:23.761Z,15.88
2017-08-07T02:30:23.760Z,15.94
2017-08-07T02:31:24.109Z,15.98
2017-08-07T02:32:24.067Z,15.94
2017-08-07T02:33:23.759Z,15.97
2017-08-07T02:34:24.070Z,15.95
2017-08-07T02:35:24.058Z,15.92
2017-08-07T02:36:24.068Z,15.88
2017-08-07T02:37:24.057Z,15.84
2017-08-07T02:38:23.765Z,15.76
2017-08-07T02:39:24.065Z,15.8
2017-08-07T02:40:24.073Z,15.77
2017-08-07T02:41:24.066Z,15.77
2017-08-07T02:42:24.071Z,15.68
2017-08-07T02:43:23.757Z,15.7
2017-08-07T02:44:24.075Z,15.84
2017-08-07T02:45:24.056Z,15.77
2017-08-07T02:46:26.112Z,15.76
2017-08-07T02:47:24.070Z,15.75
2017-08-07T02:48:24.060Z,15.77
2017-08-07T02:49:24.075Z,15.75
2017-08-07T02:50:23.764Z,15.72
2017-08-07T02:51:24.061Z,15.68
2017-08-07T02:52:24.079Z,15.58
2017-08-07T02:53:24.058Z,15.59
2017-08-07T02:54:24.065Z,15.72
2017-08-07T02:55:23.760Z,15.64
2017-08-07T02:56:23.760Z,15.64
2017-08-07T02:57:24.056Z,15.61
2017-08-07T02:58:23.759Z,15.65
2017-08-07T02:59:24.065Z,15.54
2017-08-07T03:00:24.062Z,15.52
2017-08-07T03:01:24.111Z,15.46
2017-08-07T03:02:24.067Z,15.39
2017-08-07T03:03:24.059Z,15.43
2017-08-07T03:04:23.759Z,15.28
2017-08-07T03:05:24.062Z,15.35
2017-08-07T03:06:24.068Z,15.25
2017-08-07T03:07:24.061Z,15.35
2017-08-07T03:08:24.062Z,15.27
2017-08-07T03:09:24.062Z,15.21
2017-08-07T03:10:24.067Z,15.25
2017-08-07T03:11:23.767Z,15.24
2017-08-07T03:12:23.765Z,15.14
2017-08-07T03:13:24.069Z,15.17
2017-08-07T03:14:24.063Z,15.17
2017-08-07T03:15:24.065Z,15.09
2017-08-07T03:16:25.272Z,15.06
2017-08-07T03:17:24.077Z,15.03
2017-08-07T03:18:24.065Z,15.02
2017-08-07T03:19:23.773Z,15.07
2017-08-07T03:20:24.070Z,15.07
2017-08-07T03:21:23.766Z,15.07
2017-08-07T03:22:24.089Z,15
2017-08-07T03:23:24.067Z,15.04
2017-08-07T03:24:24.069Z,15.07
2017-08-07T03:25:24.066Z,15.07
2017-08-07T03:26:24.069Z,15.09
2017-08-07T03:27:24.070Z,15.02
2017-08-07T03:28:24.074Z,15.03
2017-08-07T03:29:23.774Z,15.09
2017-08-07T03:30:24.078Z,15.03
2017-08-07T03:31:26.232Z,15.14
2017-08-07T03:32:24.072Z,15.02
2017-08-07T03:33:24.074Z,14.99
2017-08-07T03:34:24.067Z,15
2017-08-07T03:35:24.070Z,14.94
2017-08-07T03:36:23.769Z,14.96
2017-08-07T03:37:24.071Z,14.92
2017-08-07T03:38:24.067Z,14.91
2017-08-07T03:39:24.070Z,14.94
2017-08-07T03:40:24.068Z,14.85
2017-08-07T03:41:24.071Z,14.91
2017-08-07T03:42:24.068Z,14.85
2017-08-07T03:43:24.069Z,14.81
2017-08-07T03:44:24.085Z,14.85
2017-08-07T03:45:24.065Z,14.89
2017-08-07T03:46:24.069Z,14.89
2017-08-07T03:47:24.071Z,14.92
2017-08-07T03:48:23.767Z,14.96
2017-08-07T03:49:24.072Z,14.89
2017-08-07T03:50:23.772Z,14.96
2017-08-07T03:51:24.075Z,14.88
2017-08-07T03:52:24.074Z,14.92
2017-08-07T03:53:24.070Z,14.94
2017-08-07T03:54:24.068Z,15.02
2017-08-07T03:55:24.070Z,14.94
2017-08-07T03:56:24.082Z,14.89
2017-08-07T03:57:23.770Z,14.89
2017-08-07T03:58:24.068Z,14.99
2017-08-07T03:59:24.079Z,15
2017-08-07T04:00:24.068Z,14.92
2017-08-07T04:01:23.773Z,14.99
2017-08-07T04:02:24.124Z,14.92
2017-08-07T04:03:24.075Z,14.91
2017-08-07T04:04:24.066Z,14.89
2017-08-07T04:05:24.065Z,14.91
2017-08-07T04:06:24.070Z,14.97
2017-08-07T04:07:23.771Z,14.97
2017-08-07T04:08:24.071Z,14.91
2017-08-07T04:09:24.069Z,14.85
2017-08-07T04:10:23.767Z,14.94
2017-08-07T04:11:24.077Z,14.99
2017-08-07T04:12:23.770Z,15
2017-08-07T04:13:24.068Z,14.96
2017-08-07T04:14:24.069Z,15
2017-08-07T04:15:24.366Z,14.92
2017-08-07T04:16:24.266Z,14.91
2017-08-07T04:17:24.371Z,14.88
2017-08-07T04:18:23.761Z,14.92
2017-08-07T04:19:24.079Z,15
2017-08-07T04:20:23.765Z,14.91
2017-08-07T04:21:24.070Z,14.86
2017-08-07T04:22:24.067Z,14.91
2017-08-07T04:23:24.072Z,14.94
2017-08-07T04:24:24.072Z,14.97
2017-08-07T04:25:24.068Z,15
2017-08-07T04:26:24.073Z,15.03
2017-08-07T04:27:24.320Z,14.99
2017-08-07T04:28:24.066Z,15.09
2017-08-07T04:29:24.067Z,15.03
2017-08-07T04:30:23.766Z,15.04
2017-08-07T04:31:24.069Z,15.02
2017-08-07T04:32:23.815Z,15.07
2017-08-07T04:33:24.070Z,15.18
2017-08-07T04:34:23.764Z,15.24
2017-08-07T04:35:24.066Z,15.39
2017-08-07T04:36:24.075Z,15.54
2017-08-07T04:37:24.069Z,15.77
2017-08-07T04:38:24.072Z,15.97
2017-08-07T04:39:24.070Z,16.31
2017-08-07T04:40:24.075Z,16.53
2017-08-07T04:41:24.077Z,16.75
2017-08-07T04:42:23.769Z,16.9
2017-08-07T04:43:24.074Z,17.16
2017-08-07T04:44:23.773Z,17.39
2017-08-07T04:45:24.077Z,17.56
2017-08-07T04:46:23.777Z,17.71
2017-08-07T04:47:24.284Z,17.92
2017-08-07T04:48:24.092Z,18.13
2017-08-07T04:49:24.084Z,18.28
2017-08-07T04:50:23.787Z,18.41
2017-08-07T04:51:24.093Z,18.55
2017-08-07T04:52:24.095Z,18.66
2017-08-07T04:53:24.098Z,18.81
2017-08-07T04:54:24.098Z,18.95
2017-08-07T04:55:24.097Z,19.19
2017-08-07T04:56:23.799Z,19.22
2017-08-07T04:57:23.816Z,19.4
2017-08-07T04:58:24.113Z,19.47
2017-08-07T04:59:24.112Z,19.59
2017-08-07T05:00:24.117Z,19.76
2017-08-07T05:01:23.824Z,19.76
2017-08-07T05:02:25.775Z,19.79
2017-08-07T05:03:23.821Z,19.88
2017-08-07T05:04:23.828Z,20.04
2017-08-07T05:05:24.133Z,20.22
2017-08-07T05:06:23.842Z,20.32
2017-08-07T05:07:23.842Z,20.4
2017-08-07T05:08:24.146Z,20.4
2017-08-07T05:09:24.156Z,20.62
2017-08-07T05:10:24.163Z,20.8
2017-08-07T05:11:24.158Z,20.81
2017-08-07T05:12:23.859Z,20.99
2017-08-07T05:13:24.173Z,21.12
2017-08-07T05:14:23.865Z,21.22
2017-08-07T05:15:24.177Z,21.27
2017-08-07T05:16:24.178Z,21.36
2017-08-07T05:17:25.289Z,21.36
2017-08-07T05:18:24.190Z,21.51
2017-08-07T05:19:24.197Z,21.51
2017-08-07T05:20:24.201Z,21.69
2017-08-07T05:21:24.205Z,21.89
2017-08-07T05:22:24.210Z,21.96
2017-08-07T05:23:24.214Z,21.92
2017-08-07T05:24:24.221Z,21.98
2017-08-07T05:25:23.947Z,22.08
2017-08-07T05:26:24.230Z,22.06
2017-08-07T05:27:24.244Z,21.93
2017-08-07T05:28:23.949Z,21.55
2017-08-07T05:29:24.249Z,21.37
2017-08-07T05:30:23.945Z,21.06
2017-08-07T05:31:24.258Z,20.67
2017-08-07T05:32:24.260Z,20.44
2017-08-07T05:33:24.264Z,20.31
2017-08-07T05:34:24.266Z,20.58
2017-08-07T05:35:24.273Z,20.7
2017-08-07T05:36:24.278Z,21.11
2017-08-07T05:37:24.284Z,21.37
2017-08-07T05:38:24.287Z,21.7
2017-08-07T05:39:23.990Z,21.98
2017-08-07T05:40:24.294Z,22.45
2017-08-07T05:41:23.693Z,22.78
2017-08-07T05:42:24.310Z,23.12
2017-08-07T05:43:24.309Z,23.39
2017-08-07T05:44:24.018Z,23.55
2017-08-07T05:45:24.342Z,23.62
2017-08-07T05:46:24.324Z,23.73
2017-08-07T05:47:24.029Z,23.99
2017-08-07T05:48:24.038Z,24.01
2017-08-07T05:49:24.340Z,24.24
2017-08-07T05:50:24.045Z,24.5
2017-08-07T05:51:24.357Z,24.65
2017-08-07T05:52:24.357Z,24.81
2017-08-07T05:53:24.382Z,25.04
2017-08-07T05:54:24.389Z,25.17
2017-08-07T05:55:24.418Z,25.1
2017-08-07T05:56:24.381Z,25.1
2017-08-07T05:57:24.395Z,25.07
2017-08-07T05:58:24.095Z,25.22
2017-08-07T05:59:24.100Z,25.35
2017-08-07T06:00:24.104Z,25.58
2017-08-07T06:01:24.412Z,25.35
2017-08-07T06:02:23.817Z,25.35
2017-08-07T06:03:24.530Z,25.21
2017-08-07T06:04:24.449Z,25.44
2017-08-07T06:05:24.135Z,25.33
2017-08-07T06:06:24.144Z,25.23
2017-08-07T06:07:24.157Z,25.06
2017-08-07T06:08:24.165Z,24.5
2017-08-07T06:09:24.185Z,24.05
2017-08-07T06:10:24.170Z,23.62
2017-08-07T06:11:24.480Z,23.17
2017-08-07T06:12:24.502Z,22.69
2017-08-07T06:13:24.191Z,22.22
2017-08-07T06:14:24.494Z,21.79
2017-08-07T06:15:24.498Z,21.58
2017-08-07T06:16:24.210Z,21.35
2017-08-07T06:17:24.509Z,21.29
2017-08-07T06:18:26.972Z,21.39
2017-08-07T06:19:24.524Z,21.57
2017-08-07T06:20:24.526Z,21.54
2017-08-07T06:21:24.529Z,21.92
2017-08-07T06:22:24.539Z,22.36
2017-08-07T06:23:24.243Z,22.96
2017-08-07T06:24:24.547Z,23.69
2017-08-07T06:25:24.248Z,24.16
2017-08-07T06:26:24.264Z,24.48
2017-08-07T06:27:24.570Z,24.86
2017-08-07T06:28:24.567Z,24.88
2017-08-07T06:29:24.579Z,25.23
2017-08-07T06:30:24.274Z,25.48
2017-08-07T06:31:24.587Z,25.77
2017-08-07T06:32:24.603Z,26.25
2017-08-07T06:33:25.098Z,26.59
2017-08-07T06:34:24.606Z,26.51
2017-08-07T06:35:24.343Z,26.4
2017-08-07T06:36:24.612Z,26.58
2017-08-07T06:37:24.625Z,26.96
2017-08-07T06:38:24.649Z,27.44
2017-08-07T06:39:24.637Z,27.93
2017-08-07T06:40:24.339Z,28.29
2017-08-07T06:41:24.655Z,28.56
2017-08-07T06:42:24.355Z,28.45
2017-08-07T06:43:24.360Z,28.35
2017-08-07T06:44:24.673Z,28.35
2017-08-07T06:45:24.679Z,28.32
2017-08-07T06:46:24.387Z,28.56
2017-08-07T06:47:24.688Z,28.42
2017-08-07T06:48:24.702Z,28.32
2017-08-07T06:49:24.707Z,28.52
2017-08-07T06:50:24.418Z,28.42
2017-08-07T06:51:24.729Z,28.22
2017-08-07T06:52:24.729Z,27.83
2017-08-07T06:53:24.738Z,27.58
2017-08-07T06:54:24.746Z,27.52
2017-08-07T06:55:24.758Z,27.64
2017-08-07T06:56:24.770Z,28.01
2017-08-07T06:57:24.790Z,28.29
2017-08-07T06:58:24.775Z,28.41
2017-08-07T06:59:24.781Z,28.1
2017-08-07T07:00:24.804Z,27.7
2017-08-07T07:01:24.500Z,27.4
2017-08-07T07:02:24.811Z,27.39
2017-08-07T07:03:24.523Z,27.59
2017-08-07T07:04:24.522Z,27.77
2017-08-07T07:05:24.533Z,27.86
2017-08-07T07:06:24.845Z,28.15
2017-08-07T07:07:24.858Z,28.38
2017-08-07T07:08:24.860Z,28.6
2017-08-07T07:09:24.567Z,28.72
2017-08-07T07:10:24.876Z,28.93
2017-08-07T07:11:24.902Z,29.39
2017-08-07T07:12:24.895Z,29.81
2017-08-07T07:13:24.910Z,30.37
2017-08-07T07:14:24.908Z,30.5
2017-08-07T07:15:24.926Z,30.4
2017-08-07T07:16:24.626Z,29.87
2017-08-07T07:17:24.936Z,29.19
2017-08-07T07:18:24.950Z,28.74
2017-08-07T07:19:25.007Z,28.41
2017-08-07T07:20:24.667Z,28.47
2017-08-07T07:21:24.671Z,28.49
2017-08-07T07:22:24.982Z,28.39
2017-08-07T07:23:24.984Z,28.45
2017-08-07T07:24:24.993Z,28.63
2017-08-07T07:25:25.011Z,28.33
2017-08-07T07:26:24.714Z,28.26
2017-08-07T07:27:25.018Z,28.1
2017-08-07T07:28:25.032Z,27.95
2017-08-07T07:29:25.043Z,27.92
2017-08-07T07:30:24.746Z,27.47
2017-08-07T07:31:24.757Z,27.17
2017-08-07T07:32:25.058Z,26.85
2017-08-07T07:33:25.069Z,26.26
2017-08-07T07:34:25.128Z,25.95
2017-08-07T07:35:24.784Z,25.8
2017-08-07T07:36:25.091Z,26.16
2017-08-07T07:37:25.106Z,26.38
2017-08-07T07:38:25.100Z,26.4
2017-08-07T07:39:25.109Z,26.51
2017-08-07T07:40:25.116Z,26.8
2017-08-07T07:41:25.124Z,27.11
2017-08-07T07:42:25.130Z,27.37
2017-08-07T07:43:24.841Z,27.87
2017-08-07T07:44:25.179Z,28.22
2017-08-07T07:45:25.156Z,28.88
2017-08-07T07:46:24.888Z,29.41
2017-08-07T07:47:24.962Z,29.63
2017-08-07T07:48:25.239Z,29.76
2017-08-07T07:49:26.440Z,29.79
2017-08-07T07:50:25.198Z,29.63
2017-08-07T07:51:25.211Z,29.6
2017-08-07T07:52:25.214Z,29.66
2017-08-07T07:53:25.214Z,29.49
2017-08-07T07:54:25.234Z,29.05
2017-08-07T07:55:25.240Z,28.6
2017-08-07T07:56:24.941Z,28.11
2017-08-07T07:57:25.251Z,27.98
2017-08-07T07:58:25.256Z,27.98
2017-08-07T07:59:25.265Z,28.11
2017-08-07T08:00:25.277Z,28.39
2017-08-07T08:01:25.303Z,28.75
2017-08-07T08:02:24.993Z,28.89
2017-08-07T08:03:25.299Z,29.27
2017-08-07T08:04:25.358Z,29.5
2017-08-07T08:05:25.312Z,29.73
2017-08-07T08:06:25.320Z,29.56
2017-08-07T08:07:25.324Z,29.41
2017-08-07T08:08:25.036Z,29.39
2017-08-07T08:09:25.039Z,29.39
2017-08-07T08:10:25.347Z,29.19
2017-08-07T08:11:25.360Z,29.04
2017-08-07T08:12:25.363Z,28.88
2017-08-07T08:13:25.375Z,28.98
2017-08-07T08:14:25.382Z,29.26
2017-08-07T08:15:25.389Z,29.69
2017-08-07T08:16:25.401Z,30.13
2017-08-07T08:17:25.106Z,30.43
2017-08-07T08:18:25.414Z,30.39
2017-08-07T08:19:27.426Z,30.08
2017-08-07T08:20:25.434Z,30.28
2017-08-07T08:21:25.440Z,30.5
2017-08-07T08:22:25.144Z,30.31
2017-08-07T08:23:25.462Z,30.15
2017-08-07T08:24:25.476Z,30.3
2017-08-07T08:25:25.470Z,30.35
2017-08-07T08:26:25.476Z,30.37
2017-08-07T08:27:24.893Z,29.75
2017-08-07T08:28:25.510Z,29.51
2017-08-07T08:29:25.506Z,29.45
2017-08-07T08:30:25.568Z,29.71
2017-08-07T08:31:25.560Z,29.9
2017-08-07T08:32:25.533Z,29.97
2017-08-07T08:33:25.536Z,29.95
2017-08-07T08:34:28.304Z,30.18
2017-08-07T08:35:25.555Z,30.43
2017-08-07T08:36:25.567Z,30.48
2017-08-07T08:37:25.572Z,30.61
2017-08-07T08:38:25.581Z,30.62
2017-08-07T08:39:25.284Z,30.75
2017-08-07T08:40:25.599Z,30.77
2017-08-07T08:41:25.605Z,30.75
2017-08-07T08:42:25.634Z,30.77
2017-08-07T08:43:25.632Z,30.62
2017-08-07T08:44:25.632Z,30.43
2017-08-07T08:45:25.645Z,30
2017-08-07T08:46:25.662Z,29.97
2017-08-07T08:47:25.362Z,30
2017-08-07T08:48:25.667Z,29.98
2017-08-07T08:49:25.673Z,29.88
2017-08-07T08:50:25.394Z,29.53
2017-08-07T08:51:25.688Z,29.12
2017-08-07T08:52:25.420Z,28.81
2017-08-07T08:53:25.409Z,28.44
2017-08-07T08:54:25.725Z,27.98
2017-08-07T08:55:25.728Z,27.63
2017-08-07T08:56:25.435Z,27.4
2017-08-07T08:57:25.751Z,27.14
2017-08-07T08:58:25.745Z,26.95
2017-08-07T08:59:25.462Z,26.63
2017-08-07T09:00:25.483Z,26.56
2017-08-07T09:01:25.770Z,26.31
2017-08-07T09:02:25.783Z,26.03
2017-08-07T09:03:25.481Z,25.7
2017-08-07T09:04:25.794Z,25.48
2017-08-07T09:05:25.805Z,25.32
2017-08-07T09:06:25.808Z,25.32
2017-08-07T09:07:25.823Z,25.44
2017-08-07T09:08:25.821Z,25.58
2017-08-07T09:09:25.827Z,25.66
2017-08-07T09:10:25.828Z,25.68
2017-08-07T09:11:25.838Z,25.66
2017-08-07T09:12:25.547Z,25.7
2017-08-07T09:13:25.854Z,25.65
2017-08-07T09:14:25.896Z,25.59
2017-08-07T09:15:25.900Z,25.5
2017-08-07T09:16:25.872Z,25.58
2017-08-07T09:17:25.876Z,25.51
2017-08-07T09:18:25.578Z,25.53
2017-08-07T09:19:25.893Z,25.6
2017-08-07T09:20:27.697Z,25.53
2017-08-07T09:21:25.612Z,25.66
2017-08-07T09:22:25.917Z,25.73
2017-08-07T09:23:25.922Z,25.95
2017-08-07T09:24:25.922Z,26.1
2017-08-07T09:25:25.920Z,26.03
2017-08-07T09:26:25.948Z,26.07
2017-08-07T09:27:25.954Z,26.05
2017-08-07T09:28:25.953Z,25.98
2017-08-07T09:29:25.958Z,26.06
2017-08-07T09:30:26.450Z,26.16
2017-08-07T09:31:25.959Z,26.31
2017-08-07T09:32:25.961Z,26.43
2017-08-07T09:33:25.964Z,26.59
2017-08-07T09:34:25.986Z,26.51
2017-08-07T09:35:27.087Z,26.23
2017-08-07T09:36:25.688Z,26.07
2017-08-07T09:37:25.688Z,25.93
2017-08-07T09:38:25.994Z,25.85
2017-08-07T09:39:25.395Z,25.77
2017-08-07T09:40:25.714Z,25.69
2017-08-07T09:41:26.032Z,25.7
2017-08-07T09:42:26.030Z,25.85
2017-08-07T09:43:25.743Z,25.96
2017-08-07T09:44:26.039Z,26.07
2017-08-07T09:45:25.735Z,26.19
2017-08-07T09:46:25.749Z,26.23
2017-08-07T09:47:25.755Z,26.18
2017-08-07T09:48:26.064Z,26
2017-08-07T09:49:25.752Z,25.93
2017-08-07T09:50:28.217Z,25.91
2017-08-07T09:51:25.768Z,25.93
2017-08-07T09:52:25.790Z,26.07
2017-08-07T09:53:26.091Z,26.23
2017-08-07T09:54:26.086Z,26.36
2017-08-07T09:55:25.795Z,26.47
2017-08-07T09:56:25.498Z,26.52
2017-08-07T09:57:25.812Z,26.63
2017-08-07T09:58:26.149Z,26.7
2017-08-07T09:59:26.110Z,26.73
2017-08-07T10:00:25.811Z,26.65
2017-08-07T10:01:26.122Z,26.73
2017-08-07T10:02:25.824Z,26.7
2017-08-07T10:03:25.818Z,26.71
2017-08-07T10:04:25.827Z,26.58
2017-08-07T10:05:25.837Z,26.48
2017-08-07T10:06:25.843Z,26.33
2017-08-07T10:07:25.847Z,26.37
2017-08-07T10:08:25.859Z,26.47
2017-08-07T10:09:25.897Z,26.55
2017-08-07T10:10:25.572Z,26.58
2017-08-07T10:11:26.172Z,26.65
2017-08-07T10:12:26.183Z,26.53
2017-08-07T10:13:26.198Z,26.62
2017-08-07T10:14:26.185Z,26.65
2017-08-07T10:15:26.197Z,26.65
2017-08-07T10:16:26.203Z,26.75
2017-08-07T10:17:25.900Z,26.68
2017-08-07T10:18:25.923Z,26.68
2017-08-07T10:19:25.901Z,26.66
2017-08-07T10:20:25.910Z,26.62
2017-08-07T10:21:25.917Z,26.6
2017-08-07T10:22:26.239Z,26.55
2017-08-07T10:23:25.951Z,26.44
2017-08-07T10:24:26.270Z,26.48
2017-08-07T10:25:26.242Z,26.37
2017-08-07T10:26:26.245Z,26.07
2017-08-07T10:27:25.951Z,25.77
2017-08-07T10:28:25.972Z,25.69
2017-08-07T10:29:25.961Z,25.55
2017-08-07T10:30:25.982Z,25.54
2017-08-07T10:31:25.970Z,25.59
2017-08-07T10:32:26.296Z,25.53
2017-08-07T10:33:25.983Z,25.36
2017-08-07T10:34:25.992Z,25.29
2017-08-07T10:35:25.994Z,25.28
2017-08-07T10:36:26.552Z,25.28
2017-08-07T10:37:26.307Z,25.43
2017-08-07T10:38:26.011Z,25.58
2017-08-07T10:39:26.009Z,25.6
2017-08-07T10:40:26.026Z,25.77
2017-08-07T10:41:26.041Z,25.84
2017-08-07T10:42:26.336Z,25.9
2017-08-07T10:43:26.355Z,25.84
2017-08-07T10:44:26.337Z,25.93
2017-08-07T10:45:26.069Z,25.84
2017-08-07T10:46:26.043Z,25.85
2017-08-07T10:47:26.058Z,25.73
2017-08-07T10:48:25.755Z,25.8
2017-08-07T10:49:26.061Z,25.87
2017-08-07T10:50:26.366Z,25.93
2017-08-07T10:51:27.030Z,26.07
2017-08-07T10:52:26.073Z,26.06
2017-08-07T10:53:26.387Z,26.09
2017-08-07T10:54:25.783Z,26.15
2017-08-07T10:55:26.393Z,26.29
2017-08-07T10:56:26.399Z,26.26
2017-08-07T10:57:26.119Z,26.38
2017-08-07T10:58:26.411Z,26.47
2017-08-07T10:59:26.116Z,26.44
2017-08-07T11:00:26.417Z,26.41
2017-08-07T11:01:26.170Z,26.41
2017-08-07T11:02:26.121Z,26.37
2017-08-07T11:03:26.140Z,26.45
2017-08-07T11:04:26.144Z,26.45
2017-08-07T11:05:26.446Z,26.52
2017-08-07T11:06:26.192Z,26.48
2017-08-07T11:07:26.150Z,26.45
2017-08-07T11:08:26.465Z,26.34
2017-08-07T11:09:26.167Z,26.37
2017-08-07T11:10:26.167Z,26.36
2017-08-07T11:11:26.186Z,26.31
2017-08-07T11:12:26.473Z,26.21
2017-08-07T11:13:26.186Z,26.28
2017-08-07T11:14:26.484Z,26.34
2017-08-07T11:15:26.497Z,26.43
2017-08-07T11:16:26.497Z,26.45
2017-08-07T11:17:26.194Z,26.37
2017-08-07T11:18:26.532Z,26.34
2017-08-07T11:19:26.209Z,26.34
2017-08-07T11:20:26.515Z,26.31
2017-08-07T11:21:30.433Z,26.37
2017-08-07T11:22:26.228Z,26.45
2017-08-07T11:23:26.539Z,26.47
2017-08-07T11:24:26.545Z,26.58
2017-08-07T11:25:26.554Z,26.59
2017-08-07T11:26:26.559Z,26.58
2017-08-07T11:27:26.251Z,26.53
2017-08-07T11:28:26.255Z,26.56
2017-08-07T11:29:26.559Z,26.6
2017-08-07T11:30:25.975Z,26.7
2017-08-07T11:31:26.580Z,26.58
2017-08-07T11:32:25.976Z,26.62
2017-08-07T11:33:26.287Z,26.59
2017-08-07T11:34:26.615Z,26.6
2017-08-07T11:35:26.594Z,26.7
2017-08-07T11:36:26.322Z,26.75
2017-08-07T11:37:26.012Z,26.84
2017-08-07T11:38:26.321Z,26.85
2017-08-07T11:39:26.610Z,26.78
2017-08-07T11:40:26.627Z,26.71
2017-08-07T11:41:26.328Z,26.6
2017-08-07T11:42:26.634Z,26.52
2017-08-07T11:43:26.632Z,26.45
2017-08-07T11:44:26.642Z,26.47
2017-08-07T11:45:26.645Z,26.59
2017-08-07T11:46:26.646Z,26.62
2017-08-07T11:47:26.658Z,26.65
2017-08-07T11:48:26.666Z,26.63
2017-08-07T11:49:26.665Z,26.7
2017-08-07T11:50:26.666Z,26.74
2017-08-07T11:51:26.072Z,26.68
2017-08-07T11:52:27.479Z,26.68
2017-08-07T11:53:26.080Z,26.58
2017-08-07T11:54:26.689Z,26.65
2017-08-07T11:55:26.390Z,26.58
2017-08-07T11:56:26.396Z,26.71
2017-08-07T11:57:26.401Z,26.73
2017-08-07T11:58:26.411Z,26.73
2017-08-07T11:59:26.713Z,26.66
2017-08-07T12:00:26.413Z,26.45
2017-08-07T12:01:26.430Z,26.34
2017-08-07T12:02:26.421Z,26.22
2017-08-07T12:03:26.741Z,26.19
2017-08-07T12:04:26.435Z,26.28
2017-08-07T12:05:26.741Z,26.4
2017-08-07T12:06:26.748Z,26.45
2017-08-07T12:07:26.803Z,26.45
2017-08-07T12:08:26.474Z,26.6
2017-08-07T12:09:26.164Z,26.56
2017-08-07T12:10:26.764Z,26.58
2017-08-07T12:11:26.775Z,26.62
2017-08-07T12:12:26.776Z,26.51
2017-08-07T12:13:26.780Z,26.43
2017-08-07T12:14:26.788Z,26.52
2017-08-07T12:15:26.490Z,26.44
2017-08-07T12:16:26.490Z,26.44
2017-08-07T12:17:26.808Z,26.51
2017-08-07T12:18:26.810Z,26.47
2017-08-07T12:19:26.219Z,26.53
2017-08-07T12:20:26.815Z,26.48
2017-08-07T12:21:26.823Z,26.59
2017-08-07T12:22:27.826Z,26.68
2017-08-07T12:23:26.837Z,26.73
2017-08-07T12:24:26.840Z,26.74
2017-08-07T12:25:26.840Z,26.8
2017-08-07T12:26:26.849Z,26.84
2017-08-07T12:27:26.853Z,26.81
2017-08-07T12:28:26.561Z,26.96
2017-08-07T12:29:26.564Z,27.1
2017-08-07T12:30:26.566Z,27.02
2017-08-07T12:31:26.888Z,27.02
2017-08-07T12:32:26.574Z,26.96
2017-08-07T12:33:26.278Z,26.99
2017-08-07T12:34:26.890Z,26.83
2017-08-07T12:35:26.592Z,26.74
2017-08-07T12:36:26.899Z,26.73
2017-08-07T12:37:26.599Z,26.71
2017-08-07T12:38:26.608Z,26.83
2017-08-07T12:39:26.917Z,26.85
2017-08-07T12:40:26.918Z,26.93
2017-08-07T12:41:26.621Z,26.89
2017-08-07T12:42:26.933Z,26.96
2017-08-07T12:43:26.640Z,27.02
2017-08-07T12:44:26.638Z,27.02
2017-08-07T12:45:26.641Z,26.95
2017-08-07T12:46:26.364Z,26.92
2017-08-07T12:47:26.958Z,27.03
2017-08-07T12:48:26.960Z,27
2017-08-07T12:49:26.961Z,27.08
2017-08-07T12:50:26.975Z,26.92
2017-08-07T12:51:26.677Z,26.99
2017-08-07T12:52:26.980Z,26.89
2017-08-07T12:53:27.012Z,26.81
2017-08-07T12:54:26.991Z,26.93
2017-08-07T12:55:26.731Z,26.95